Time;durP1;ratioP1;P1;durP2;ratioP2;P2;SDS_P1;SDS_P2;PMS_P1;PMS_P2;Temp;Humidity;BMP_temperature;BMP_pressure;BME280_temperature;BME280_humidity;BME280_pressure;Samples;Min_cycle;Max_cycle;Signal;HPM_P1;HPM_P2
2021/09/25 00:01:45;;;;;;;3.58;1.50;;;;;;;20.31;60.47;101548.28;4949661;29;20028;-79
2021/09/25 00:04:10;;;;;;;3.92;1.48;;;;;;;20.34;60.24;101544.59;4941175;29;20043;-79
2021/09/25 00:06:36;;;;;;;2.65;1.40;;;;;;;20.33;60.41;101549.03;4934771;29;20047;-79
2021/09/25 00:09:01;;;;;;;1.23;1.00;;;;;;;20.34;60.33;101544.59;4944368;29;20039;-79
2021/09/25 00:11:28;;;;;;;1.80;1.15;;;;;;;20.31;60.42;101537.66;4942687;29;20039;-79
2021/09/25 00:13:54;;;;;;;2.35;1.55;;;;;;;20.33;60.53;101545.53;4959994;29;20027;-79
2021/09/25 00:16:19;;;;;;;4.97;1.55;;;;;;;20.27;60.55;101543.31;4925735;29;20043;-79
2021/09/25 00:18:45;;;;;;;2.90;1.27;;;;;;;20.27;60.44;101538.84;4930569;29;20042;-79
2021/09/25 00:21:10;;;;;;;1.42;1.10;;;;;;;20.27;60.55;101540.66;4940548;29;20070;-79
2021/09/25 00:23:36;;;;;;;1.83;1.08;;;;;;;20.29;60.46;101544.06;4926180;29;20044;-79
2021/09/25 00:26:01;;;;;;;4.53;1.40;;;;;;;20.26;60.74;101541.59;4943747;29;20032;-79
2021/09/25 00:28:26;;;;;;;1.33;1.15;;;;;;;20.25;60.68;101540.75;4925068;29;20360;-79
2021/09/25 00:30:52;;;;;;;2.90;1.10;;;;;;;20.29;60.50;101533.41;4957028;29;20051;-79
2021/09/25 00:33:17;;;;;;;2.58;1.25;;;;;;;20.28;60.59;101537.03;4937241;29;20059;-79
2021/09/25 00:35:43;;;;;;;2.15;1.02;;;;;;;20.30;60.50;101541.28;4940335;29;20035;-78
2021/09/25 00:38:08;;;;;;;2.53;1.35;;;;;;;20.31;60.39;101539.47;4927221;29;20052;-79
2021/09/25 00:40:34;;;;;;;3.40;1.45;;;;;;;20.31;60.26;101537.66;4927339;29;20040;-79
2021/09/25 00:42:59;;;;;;;3.58;1.30;;;;;;;20.31;60.19;101532.34;4942201;29;20075;-79
2021/09/25 00:45:26;;;;;;;4.10;1.92;;;;;;;20.30;60.22;101541.28;4931911;29;20054;-78
2021/09/25 00:47:51;;;;;;;4.20;1.40;;;;;;;20.33;60.33;101540.22;4925111;29;20040;-78
2021/09/25 00:50:17;;;;;;;1.17;0.90;;;;;;;20.31;60.23;101542.97;4939604;29;20339;-78
2021/09/25 00:52:42;;;;;;;1.98;1.35;;;;;;;20.28;60.27;101547.66;4929531;29;20035;-78
2021/09/25 00:55:08;;;;;;;2.90;1.20;;;;;;;20.26;60.58;101547.75;4925745;29;20051;-79
2021/09/25 00:57:34;;;;;;;1.88;1.20;;;;;;;20.30;60.41;101543.94;4936159;29;20035;-78
2021/09/25 01:00:00;;;;;;;4.53;1.45;;;;;;;20.27;60.43;101544.16;4924714;29;20059;-79
2021/09/25 01:02:26;;;;;;;4.25;1.17;;;;;;;20.30;60.39;101545.75;4927695;29;20037;-79
2021/09/25 01:04:51;;;;;;;2.35;1.10;;;;;;;20.30;60.19;101543.06;4943436;29;20015;-79
2021/09/25 01:07:16;;;;;;;1.50;1.20;;;;;;;20.25;60.34;101546.09;4931873;29;20266;-79
2021/09/25 01:09:42;;;;;;;2.30;1.77;;;;;;;20.22;60.70;101540.97;4943846;29;20090;-79
2021/09/25 01:12:08;;;;;;;3.75;1.73;;;;;;;20.25;60.41;101543.41;4941199;29;20031;-79
2021/09/25 01:14:34;;;;;;;2.50;1.63;;;;;;;20.26;60.53;101542.44;4941005;29;20040;-79
2021/09/25 01:17:07;;;;;;;2.90;1.60;;;;;;;20.28;60.35;101548.53;4943312;29;20094;-79
2021/09/25 01:19:32;;;;;;;2.03;1.40;;;;;;;20.28;60.28;101547.66;4939901;29;20255;-79
2021/09/25 01:21:58;;;;;;;2.88;1.13;;;;;;;20.26;60.25;101547.75;4933146;29;20028;-79
2021/09/25 01:24:24;;;;;;;3.00;1.70;;;;;;;20.25;60.62;101546.09;4924527;29;20099;-79
2021/09/25 01:26:49;;;;;;;1.80;1.20;;;;;;;20.22;60.54;101548.09;4952395;29;20050;-79
2021/09/25 01:29:15;;;;;;;1.88;1.30;;;;;;;20.21;60.76;101549.91;4942211;29;20035;-78
2021/09/25 01:31:40;;;;;;;2.85;1.17;;;;;;;20.25;60.32;101546.09;4927500;29;20031;-79
2021/09/25 01:34:05;;;;;;;2.60;1.27;;;;;;;20.23;60.45;101534.72;4939457;29;20042;-78
2021/09/25 01:36:31;;;;;;;3.97;1.88;;;;;;;20.25;60.60;101543.41;4928863;29;20043;-79
2021/09/25 01:38:56;;;;;;;4.05;1.33;;;;;;;20.26;60.56;101539.78;4942827;29;20339;-78
2021/09/25 01:41:22;;;;;;;3.13;1.63;;;;;;;20.24;60.51;101540.88;4946290;29;20393;-79
2021/09/25 01:43:47;;;;;;;3.67;1.55;;;;;;;20.19;60.74;101538.50;4942213;29;20035;-79
2021/09/25 01:46:16;;;;;;;1.70;1.30;;;;;;;20.23;60.91;101533.84;4939633;29;20027;-79
2021/09/25 01:48:42;;;;;;;2.28;1.50;;;;;;;20.24;60.60;101527.56;4932888;29;20049;-79
2021/09/25 01:51:07;;;;;;;3.55;1.38;;;;;;;20.20;60.84;101537.56;4942584;29;20339;-79
2021/09/25 01:53:33;;;;;;;1.35;1.13;;;;;;;20.23;60.66;101534.72;4950405;29;20039;-79
2021/09/25 01:56:05;;;;;;;3.13;2.20;;;;;;;20.27;60.51;101535.34;4959561;29;20397;-79
2021/09/25 01:58:31;;;;;;;4.40;2.00;;;;;;;20.21;60.47;101536.63;4941871;29;20264;-79
2021/09/25 02:00:56;;;;;;;1.73;1.30;;;;;;;20.15;60.79;101537.03;4942650;29;20279;-79
2021/09/25 02:03:22;;;;;;;2.40;1.27;;;;;;;20.17;60.81;101534.28;4947600;29;20322;-79
2021/09/25 02:05:47;;;;;;;2.47;1.95;;;;;;;20.19;60.62;101535.84;4944932;29;20060;-78
2021/09/25 02:08:13;;;;;;;1.58;1.17;;;;;;;20.21;60.70;101541.06;4941450;29;20046;-78
2021/09/25 02:10:38;;;;;;;1.67;1.20;;;;;;;20.19;60.80;101533.19;4945973;29;20039;-79
2021/09/25 02:13:04;;;;;;;2.45;1.65;;;;;;;20.19;60.92;101537.66;4948112;29;20059;-79
2021/09/25 02:15:32;;;;;;;2.42;1.17;;;;;;;20.19;60.54;101540.34;4925457;29;20148;-79
2021/09/25 02:17:57;;;;;;;2.15;1.55;;;;;;;20.17;60.55;101540.44;4943528;29;20071;-79
2021/09/25 02:20:23;;;;;;;2.50;1.60;;;;;;;20.20;60.74;101544.72;4940431;29;20259;-79
2021/09/25 02:22:48;;;;;;;3.28;1.60;;;;;;;20.18;60.84;101539.50;4943573;29;20397;-79
2021/09/25 02:25:14;;;;;;;4.28;2.63;;;;;;;20.20;60.87;101540.22;4942643;29;20032;-79
2021/09/25 02:27:42;;;;;;;1.50;1.17;;;;;;;20.18;60.80;101530.66;4945972;29;20352;-79
2021/09/25 02:30:12;;;;;;;4.03;1.40;;;;;;;20.19;60.59;101529.69;4931830;29;20110;-79
2021/09/25 02:32:38;;;;;;;2.88;1.60;;;;;;;20.19;60.75;101532.34;4930577;29;20295;-79
2021/09/25 02:35:04;;;;;;;2.65;1.30;;;;;;;20.15;60.96;101537.03;4944611;29;20038;-79
2021/09/25 02:37:30;;;;;;;3.40;1.45;;;;;;;20.14;60.92;101530.03;4946494;29;20043;-79
2021/09/25 02:39:55;;;;;;;2.22;1.55;;;;;;;20.14;60.82;101528.22;4959835;29;20369;-79
2021/09/25 02:42:21;;;;;;;3.55;2.15;;;;;;;20.15;60.94;101537.03;4964377;29;20058;-78
2021/09/25 02:44:46;;;;;;;6.53;1.42;;;;;;;20.11;61.09;101528.44;4954278;29;20031;-79
2021/09/25 02:47:12;;;;;;;1.42;1.08;;;;;;;20.16;60.96;101530.78;4933851;29;20074;-79
2021/09/25 02:49:37;;;;;;;2.28;1.35;;;;;;;20.13;60.96;101525.66;4936568;29;20062;-79
2021/09/25 02:52:03;;;;;;;1.50;1.13;;;;;;;20.11;60.90;101524.94;4941877;29;20049;-79
2021/09/25 02:54:28;;;;;;;1.10;0.93;;;;;;;20.11;61.07;101519.59;4947605;29;20039;-79
2021/09/25 02:56:54;;;;;;;3.25;1.60;;;;;;;20.12;61.12;101523.97;4948850;29;20309;-79
2021/09/25 02:59:19;;;;;;;1.25;0.98;;;;;;;20.11;61.04;101522.25;4942292;29;20040;-79
2021/09/25 03:01:45;;;;;;;2.90;1.30;;;;;;;20.11;60.91;101525.75;4932246;29;20031;-78
2021/09/25 03:04:11;;;;;;;2.15;1.50;;;;;;;20.14;61.02;101527.38;4939358;29;20050;-78
2021/09/25 03:06:36;;;;;;;2.63;1.40;;;;;;;20.13;61.24;101523.00;4942231;29;20024;-78
2021/09/25 03:09:02;;;;;;;2.10;1.48;;;;;;;20.12;61.00;101527.47;4914398;29;20382;-78
2021/09/25 03:11:27;;;;;;;1.27;1.13;;;;;;;20.13;60.89;101528.31;4959254;29;20070;-78
2021/09/25 03:13:53;;;;;;;2.78;1.10;;;;;;;20.08;60.87;101526.00;4965275;29;20039;-78
2021/09/25 03:16:18;;;;;;;6.38;1.58;;;;;;;20.13;61.00;101521.19;4965132;29;20335;-78
2021/09/25 03:18:44;;;;;;;1.65;1.48;;;;;;;20.08;60.81;101523.34;4965761;29;20043;-78
2021/09/25 03:21:09;;;;;;;2.20;1.10;;;;;;;20.10;61.09;101528.53;4949284;29;20035;-78
2021/09/25 03:23:34;;;;;;;3.42;1.30;;;;;;;20.09;61.16;101522.38;4944462;29;20035;-78
2021/09/25 03:26:00;;;;;;;3.25;2.33;;;;;;;20.10;61.14;101525.88;4946602;29;20035;-78
2021/09/25 03:28:25;;;;;;;2.28;1.30;;;;;;;20.07;61.13;101534.09;4945602;29;20287;-78
2021/09/25 03:30:51;;;;;;;1.48;0.90;;;;;;;20.10;61.02;101528.53;4946797;29;20036;-78
2021/09/25 03:33:16;;;;;;;3.88;1.73;;;;;;;20.04;61.15;101524.50;4945835;29;20131;-78
2021/09/25 03:35:46;;;;;;;4.80;2.30;;;;;;;20.07;61.27;101529.59;4938925;29;20039;-78
2021/09/25 03:38:19;;;;;;;2.05;1.00;;;;;;;20.04;61.25;101526.31;4947502;29;20231;-79
2021/09/25 03:40:45;;;;;;;2.45;1.67;;;;;;;20.07;61.15;101526.94;4949618;29;20039;-78
2021/09/25 03:43:10;;;;;;;1.95;1.63;;;;;;;20.07;61.21;101526.94;4944981;29;20102;-78
2021/09/25 03:45:36;;;;;;;1.75;1.40;;;;;;;20.06;61.30;101527.88;4931720;29;20027;-78
2021/09/25 03:48:04;;;;;;;5.32;1.40;;;;;;;20.06;61.38;101521.72;4932704;29;20043;-78
2021/09/25 03:50:30;;;;;;;1.98;1.15;;;;;;;20.05;61.11;101525.38;4964474;29;20039;-78
2021/09/25 03:52:55;;;;;;;3.80;2.40;;;;;;;20.06;61.25;101521.72;4932478;29;20094;-78
2021/09/25 03:55:21;;;;;;;2.25;1.60;;;;;;;20.01;61.17;101519.41;4928591;29;20040;-78
2021/09/25 03:57:46;;;;;;;4.13;1.25;;;;;;;20.01;61.25;101515.88;4939158;29;20034;-79
2021/09/25 04:00:12;;;;;;;2.08;1.50;;;;;;;20.01;61.38;101518.53;4944882;29;20319;-78
2021/09/25 04:02:37;;;;;;;1.52;1.13;;;;;;;20.05;61.20;101517.38;4944845;29;20110;-80
2021/09/25 04:05:03;;;;;;;1.80;1.52;;;;;;;20.05;61.14;101517.38;4944410;29;20098;-78
2021/09/25 04:07:28;;;;;;;2.55;1.08;;;;;;;20.01;61.10;101514.09;4916447;29;20031;-78
2021/09/25 04:09:54;;;;;;;7.20;4.03;;;;;;;20.04;61.18;101516.50;4947730;29;20027;-78
2021/09/25 04:12:19;;;;;;;4.65;2.55;;;;;;;20.01;60.94;101521.19;4962378;29;20058;-78
2021/09/25 04:14:44;;;;;;;1.63;1.30;;;;;;;20.01;61.27;101524.72;4947772;29;20071;-78
2021/09/25 04:17:10;;;;;;;1.30;1.20;;;;;;;20.00;61.24;101525.66;4950993;29;20047;-78
2021/09/25 04:19:35;;;;;;;1.50;1.40;;;;;;;20.02;61.23;101521.09;4927833;29;20339;-78
2021/09/25 04:22:01;;;;;;;1.98;1.10;;;;;;;20.01;61.29;101524.72;4940851;29;20066;-78
2021/09/25 04:24:26;;;;;;;2.03;1.10;;;;;;;20.01;61.20;101522.06;4914802;29;20035;-78
2021/09/25 04:26:52;;;;;;;1.58;1.20;;;;;;;20.02;61.22;101522.91;4959689;29;20114;-78
2021/09/25 04:29:17;;;;;;;5.15;2.63;;;;;;;20.04;61.01;101521.00;4945989;29;20362;-78
2021/09/25 04:31:46;;;;;;;2.47;1.20;;;;;;;20.00;61.17;101527.50;4943691;29;20049;-78
2021/09/25 04:34:15;;;;;;;2.53;1.55;;;;;;;20.00;61.17;101514.19;4944895;29;20343;-78
2021/09/25 04:36:41;;;;;;;2.63;1.13;;;;;;;20.00;61.43;101514.19;4945802;29;20051;-78
2021/09/25 04:39:07;;;;;;;1.58;1.17;;;;;;;20.02;61.31;101520.25;4952311;29;20035;-78
2021/09/25 04:41:32;;;;;;;1.13;1.08;;;;;;;20.00;61.12;101517.69;4944011;29;20062;-78
2021/09/25 04:43:57;;;;;;;2.25;1.17;;;;;;;19.98;61.37;101522.28;4928853;29;20226;-78
2021/09/25 04:46:23;;;;;;;1.77;1.30;;;;;;;20.01;61.29;101518.53;4962827;28;20089;-78
2021/09/25 04:48:48;;;;;;;2.53;1.60;;;;;;;19.97;61.35;101515.25;4946717;29;20034;-78
2021/09/25 04:51:15;;;;;;;4.63;2.10;;;;;;;19.94;61.59;101518.13;4960162;29;20038;-78
2021/09/25 04:53:41;;;;;;;3.20;1.90;;;;;;;19.97;61.42;101511.75;4964156;29;20031;-78
2021/09/25 04:56:07;;;;;;;1.38;0.98;;;;;;;20.00;61.20;101520.34;4947484;29;20111;-78
2021/09/25 04:58:32;;;;;;;4.03;2.20;;;;;;;19.96;61.38;101510.91;4945824;29;20043;-78
2021/09/25 05:00:57;;;;;;;3.42;1.40;;;;;;;19.97;61.37;101511.75;4935201;29;20035;-78
2021/09/25 05:03:23;;;;;;;1.50;1.40;;;;;;;19.96;61.34;101510.91;4928662;29;20342;-78
2021/09/25 05:05:49;;;;;;;1.17;1.00;;;;;;;19.97;61.26;101517.91;4955376;29;20035;-78
2021/09/25 05:08:14;;;;;;;2.38;1.60;;;;;;;19.97;61.34;101515.25;4960095;29;20035;-78
2021/09/25 05:10:40;;;;;;;5.30;2.50;;;;;;;19.99;61.29;101520.47;4940989;29;20027;-78
2021/09/25 05:13:05;;;;;;;2.40;1.75;;;;;;;19.94;61.36;101518.97;4944044;29;20327;-78
2021/09/25 05:15:31;;;;;;;2.03;1.38;;;;;;;19.97;61.25;101522.38;4946369;29;20114;-78
2021/09/25 05:17:56;;;;;;;1.30;1.00;;;;;;;19.95;61.50;101525.13;4946031;29;20319;-78
2021/09/25 05:20:21;;;;;;;5.43;3.03;;;;;;;19.96;61.29;101518.03;4946813;29;20047;-79
2021/09/25 05:22:47;;;;;;;4.88;2.05;;;;;;;19.96;61.19;101515.38;4943504;29;20035;-78
2021/09/25 05:25:15;;;;;;;1.70;1.15;;;;;;;19.96;61.12;101520.69;4939426;29;20035;-78
2021/09/25 05:27:42;;;;;;;3.03;1.42;;;;;;;19.96;61.19;101515.38;4942781;29;20039;-78
2021/09/25 05:30:08;;;;;;;1.00;1.00;;;;;;;19.93;61.12;101516.41;4928662;29;20040;-78
2021/09/25 05:32:34;;;;;;;2.08;1.65;;;;;;;19.96;61.11;101518.88;4960554;29;20042;-78
2021/09/25 05:35:00;;;;;;;2.67;2.08;;;;;;;19.97;61.13;101519.72;4944557;29;20035;-78
2021/09/25 05:37:25;;;;;;;2.00;1.02;;;;;;;19.94;61.39;101516.31;4926492;29;20039;-78
2021/09/25 05:39:54;;;;;;;1.92;1.50;;;;;;;19.94;61.36;101524.28;4945842;29;20033;-78
2021/09/25 05:42:24;;;;;;;1.67;1.15;;;;;;;19.96;61.28;101526.00;4942497;29;20058;-78
2021/09/25 05:44:50;;;;;;;1.27;1.17;;;;;;;19.97;61.16;101525.88;4943311;29;20136;-78
2021/09/25 05:47:15;;;;;;;2.60;2.30;;;;;;;19.98;61.00;101526.75;4946125;29;20039;-78
2021/09/25 05:49:41;;;;;;;8.30;3.67;;;;;;;19.93;61.30;101529.72;4944827;29;20053;-78
2021/09/25 05:52:08;;;;;;;2.35;1.33;;;;;;;19.96;61.61;101526.84;4949377;29;20050;-79
2021/09/25 05:54:35;;;;;;;1.55;1.27;;;;;;;19.96;61.50;101528.66;4956636;29;20070;-78
2021/09/25 05:57:00;;;;;;;2.38;1.20;;;;;;;19.96;61.56;101529.50;4932349;29;20394;-78
2021/09/25 05:59:25;;;;;;;2.65;1.50;;;;;;;19.97;61.65;101523.22;4954424;28;20043;-78
2021/09/25 06:01:51;;;;;;;2.95;2.63;;;;;;;19.97;61.49;101525.88;4936908;29;20050;-79
2021/09/25 06:04:16;;;;;;;1.92;1.38;;;;;;;19.99;61.36;101523.97;4925226;29;20046;-79
2021/09/25 06:06:42;;;;;;;4.82;2.90;;;;;;;20.00;61.53;101528.31;4949761;28;20046;-78
2021/09/25 06:09:07;;;;;;;1.35;1.20;;;;;;;20.00;61.39;101531.00;4957152;28;20231;-78
2021/09/25 06:11:32;;;;;;;4.88;2.53;;;;;;;20.02;61.34;101533.53;4942120;28;20258;-79
2021/09/25 06:13:58;;;;;;;1.63;1.30;;;;;;;20.02;61.51;101526.41;4951240;28;20109;-78
2021/09/25 06:16:23;;;;;;;2.03;1.30;;;;;;;20.01;61.71;101524.72;4956685;28;20125;-78
2021/09/25 06:18:48;;;;;;;6.65;1.17;;;;;;;20.07;61.54;101528.75;4948890;28;20059;-78
2021/09/25 06:21:14;;;;;;;6.95;3.33;;;;;;;20.07;61.55;101523.44;4961320;28;20062;-78
2021/09/25 06:23:42;;;;;;;5.28;3.83;;;;;;;20.10;61.37;101523.22;4968131;28;20057;-80
2021/09/25 06:26:10;;;;;;;;;;;;;;;20.07;61.36;101540.25;4919090;29;20331;-78
2021/09/25 06:28:35;;;;;;;1.48;1.25;;;;;;;20.09;61.16;101538.31;4950725;29;19989;-78
2021/09/25 06:31:02;;;;;;;6.85;2.47;;;;;;;20.07;61.44;101534.09;4914016;29;20044;-78
2021/09/25 06:33:27;;;;;;;8.93;2.38;;;;;;;20.07;61.34;101537.59;4936519;29;20070;-78
2021/09/25 06:35:53;;;;;;;8.73;3.75;;;;;;;20.08;61.31;101547.28;4958017;29;20035;-78
2021/09/25 06:38:19;;;;;;;1.88;1.25;;;;;;;20.06;61.50;101545.66;4953885;29;20070;-78
2021/09/25 06:40:45;;;;;;;1.25;1.15;;;;;;;20.12;61.38;101543.44;4942822;29;20035;-78
2021/09/25 06:43:10;;;;;;;2.67;1.27;;;;;;;20.14;61.31;101540.66;4935656;29;20056;-78
2021/09/25 06:45:38;;;;;;;7.57;4.13;;;;;;;20.12;61.30;101545.25;4953324;29;20043;-78
2021/09/25 06:48:04;;;;;;;3.35;1.35;;;;;;;20.12;61.18;101551.41;4955503;29;20089;-78
2021/09/25 06:50:29;;;;;;;4.68;1.45;;;;;;;20.14;61.48;101557.47;4942909;29;20071;-78
2021/09/25 06:52:55;;;;;;;4.35;2.38;;;;;;;20.19;61.27;101554.47;4917926;29;20114;-77
2021/09/25 06:55:20;;;;;;;3.67;1.48;;;;;;;20.24;60.98;101548.84;4947461;29;20032;-78
2021/09/25 06:57:46;;;;;;;2.72;1.20;;;;;;;20.24;61.23;101549.69;4913925;29;20046;-79
2021/09/25 07:00:14;;;;;;;6.05;1.15;;;;;;;20.29;61.00;101552.03;4916437;29;20035;-79
2021/09/25 07:02:40;;;;;;;;;;;;;;;20.28;61.11;101553.84;4953242;29;20255;-79
2021/09/25 07:05:06;;;;;;;9.65;1.38;;;;;;;20.26;60.88;101553.09;4952967;29;19936;-79
2021/09/25 07:07:31;;;;;;;2.63;1.20;;;;;;;20.28;61.19;101552.97;4932705;29;20406;-79
2021/09/25 07:09:57;;;;;;;3.33;1.60;;;;;;;20.30;61.14;101553.72;4938544;29;20043;-79
2021/09/25 07:12:22;;;;;;;4.43;1.40;;;;;;;20.36;61.10;101552.47;4934916;29;20039;-79
2021/09/25 07:14:48;;;;;;;2.20;1.35;;;;;;;20.40;60.88;101544.13;4949602;29;20036;-79
2021/09/25 07:17:13;;;;;;;4.50;1.42;;;;;;;20.44;60.95;101552.75;4935067;29;20323;-79
2021/09/25 07:19:39;;;;;;;1.70;1.60;;;;;;;20.46;60.76;101550.81;4947699;29;20049;-79
2021/09/25 07:22:07;;;;;;;1.55;1.38;;;;;;;20.47;60.54;101550.72;4956118;29;20409;-79
2021/09/25 07:24:33;;;;;;;2.80;1.42;;;;;;;20.49;60.60;101551.47;4958093;29;20034;-79
2021/09/25 07:26:59;;;;;;;1.42;1.17;;;;;;;20.52;60.34;101558.41;4928778;29;20032;-79
2021/09/25 07:29:24;;;;;;;4.85;2.05;;;;;;;20.55;60.29;101566.13;4928157;29;20050;-79
2021/09/25 07:31:50;;;;;;;3.05;1.65;;;;;;;20.52;60.25;101561.91;4931830;29;20274;-79
2021/09/25 07:34:15;;;;;;;3.17;1.48;;;;;;;20.56;60.45;101567.84;4961471;29;20043;-79
2021/09/25 07:36:40;;;;;;;3.33;1.30;;;;;;;20.62;60.16;101569.25;4937248;29;20051;-79
2021/09/25 07:39:06;;;;;;;2.70;1.17;;;;;;;20.66;60.16;101563.56;4945229;29;20035;-79
2021/09/25 07:41:31;;;;;;;6.57;2.17;;;;;;;20.64;60.22;101570.81;4931786;29;20106;-79
2021/09/25 07:43:57;;;;;;;2.35;1.42;;;;;;;20.67;59.93;101565.28;4927916;29;20019;-79
2021/09/25 07:46:22;;;;;;;3.05;1.65;;;;;;;20.67;60.10;101577.75;4947451;28;20043;-79
2021/09/25 07:48:48;;;;;;;5.35;1.40;;;;;;;20.67;60.04;101573.28;4928595;28;20382;-79
2021/09/25 07:51:13;;;;;;;5.07;1.50;;;;;;;20.69;59.97;101582.00;4932949;28;20136;-79
2021/09/25 07:53:38;;;;;;;8.77;3.80;;;;;;;20.72;60.00;101583.59;4923045;28;20071;-79
2021/09/25 07:56:04;;;;;;;10.40;6.18;;;;;;;20.69;60.18;101589.16;4940876;28;20436;-80
2021/09/25 07:58:29;;;;;;;2.13;1.52;;;;;;;20.71;60.02;101592.53;4954362;28;20046;-80
2021/09/25 08:00:55;;;;;;;5.30;3.10;;;;;;;20.74;59.91;101592.31;4936547;28;20035;-81
2021/09/25 08:03:20;;;;;;;16.23;8.18;;;;;;;20.76;59.99;101601.06;4921414;28;20023;-81
2021/09/25 08:05:46;;;;;;;11.70;6.05;;;;;;;20.82;59.79;101597.94;4930135;28;20058;-81
2021/09/25 08:08:11;;;;;;;2.60;1.98;;;;;;;20.82;59.59;101605.91;4931732;28;20035;-81
2021/09/25 08:14:15;;;;;;;1.63;1.42;;;;;;;20.77;59.92;101618.69;4943644;28;20034;-80
2021/09/25 08:16:41;;;;;;;1.55;1.42;;;;;;;20.81;59.84;101622.88;4937748;28;20106;-80
2021/09/25 08:19:06;;;;;;;1.67;1.40;;;;;;;20.84;60.02;101619.97;4946664;28;20046;-80
2021/09/25 08:21:31;;;;;;;3.97;1.60;;;;;;;20.91;60.06;101620.38;4953082;28;20051;-79
2021/09/25 08:24:00;;;;;;;21.23;8.85;;;;;;;20.92;60.49;101624.75;4920306;28;20045;-80
2021/09/25 08:26:25;;;;;;;15.93;9.40;;;;;;;20.95;61.45;101632.50;4928138;28;20033;-79
2021/09/25 08:28:51;;;;;;;20.33;4.07;;;;;;;20.96;61.04;101634.22;4952254;28;20511;-79
2021/09/25 08:31:16;;;;;;;12.90;2.70;;;;;;;20.98;61.07;101631.44;4948963;28;20051;-79
2021/09/25 08:33:42;;;;;;;10.05;2.90;;;;;;;20.98;61.20;101636.78;4948797;29;20372;-80
2021/09/25 08:36:07;;;;;;;24.67;4.65;;;;;;;20.96;61.25;101639.56;4936750;29;20028;-79
2021/09/25 08:38:33;;;;;;;17.77;4.72;;;;;;;20.96;61.90;101642.22;4955179;28;20070;-79
2021/09/25 08:40:59;;;;;;;13.35;4.90;;;;;;;20.99;61.87;101650.00;4931026;28;20035;-80
2021/09/25 08:43:25;;;;;;;24.20;5.20;;;;;;;21.00;61.71;101653.50;4942159;28;20082;-80
2021/09/25 08:46:02;;;;;;;21.20;9.90;;;;;;;21.06;61.98;101653.03;4955368;28;20335;-79
2021/09/25 08:48:28;;;;;;;11.35;5.30;;;;;;;21.15;61.87;101649.69;4936140;28;20031;-80
2021/09/25 08:50:54;;;;;;;16.77;5.53;;;;;;;21.19;61.71;101645.88;4950936;28;20385;-79
2021/09/25 08:53:20;;;;;;;12.00;5.78;;;;;;;21.30;61.14;101642.41;4951367;28;20035;-79
2021/09/25 08:55:45;;;;;;;12.10;5.82;;;;;;;21.33;61.24;101644.00;4952525;28;20038;-79
2021/09/25 08:58:13;;;;;;;19.65;5.97;;;;;;;21.33;61.07;101652.00;4951769;28;20039;-80
2021/09/25 09:00:43;;;;;;;14.05;6.07;;;;;;;21.26;61.34;101647.09;4951084;28;20041;-79
2021/09/25 09:03:28;;;;;;;10.60;4.78;;;;;;;21.31;61.19;101651.28;4968219;28;20273;-79
2021/09/25 09:06:11;;;;;;;13.70;7.30;;;;;;;21.57;60.56;101654.69;4951666;28;20039;-80
2021/09/25 09:08:37;;;;;;;15.10;6.38;;;;;;;21.69;60.27;101653.78;4955851;28;20069;-81
2021/09/25 09:11:04;;;;;;;17.75;8.23;;;;;;;21.47;61.02;101654.53;4934937;29;20028;-80
2021/09/25 09:13:29;;;;;;;11.65;6.30;;;;;;;21.42;61.23;101660.16;4948807;28;20036;-80
2021/09/25 09:15:55;;;;;;;12.18;5.97;;;;;;;21.42;61.21;101652.16;4955176;28;20061;-80
2021/09/25 09:18:24;;;;;;;15.05;5.90;;;;;;;21.39;61.39;101664.84;4951469;29;20062;-78
2021/09/25 09:21:09;;;;;;;10.00;5.72;;;;;;;21.39;61.45;101664.84;4935983;28;20131;-79
2021/09/25 09:23:40;;;;;;;12.98;6.10;;;;;;;21.41;61.14;101666.47;4950162;28;20311;-77
2021/09/25 09:26:06;;;;;;;14.15;6.18;;;;;;;21.49;60.93;101657.94;4948816;28;20027;-80
2021/09/25 09:28:33;;;;;;;12.02;6.03;;;;;;;21.58;60.31;101659.91;4965006;28;20296;-80
2021/09/25 09:31:00;;;;;;;9.85;5.20;;;;;;;21.61;60.59;101661.47;4948329;29;20028;-80
2021/09/25 09:33:35;;;;;;;10.27;5.57;;;;;;;21.61;60.53;101661.47;4914315;29;20043;-80
2021/09/25 09:36:20;;;;;;;13.95;5.47;;;;;;;21.61;60.45;101665.03;4956607;29;20036;-81
2021/09/25 09:39:09;;;;;;;11.63;6.10;;;;;;;21.67;60.47;101661.88;4946037;29;20042;-81
2021/09/25 09:41:44;;;;;;;11.90;6.63;;;;;;;21.67;60.42;101666.38;4920212;28;20396;-80
2021/09/25 09:44:29;;;;;;;12.70;6.68;;;;;;;21.67;60.77;101666.38;4937066;29;20034;-81
2021/09/25 09:46:59;;;;;;;11.23;6.43;;;;;;;21.78;60.43;101665.56;4942160;28;20107;-80
2021/09/25 09:49:38;;;;;;;15.63;6.70;;;;;;;22.05;59.51;101662.63;4954376;28;20035;-80
2021/09/25 09:52:13;;;;;;;19.63;10.55;;;;;;;22.13;59.15;101652.22;4948212;28;20035;-79
2021/09/25 09:54:43;;;;;;;13.20;6.30;;;;;;;22.03;59.26;101659.25;4920314;29;20110;-79
2021/09/25 09:57:17;;;;;;;16.77;8.70;;;;;;;22.06;59.79;101664.31;4940947;29;20047;-78
2021/09/25 09:59:43;;;;;;;14.13;6.97;;;;;;;22.05;59.54;101659.97;4940254;28;20035;-78
2021/09/25 10:02:08;;;;;;;13.60;7.53;;;;;;;21.95;60.05;101669.63;4945837;28;20042;-79
2021/09/25 10:04:34;;;;;;;16.70;8.00;;;;;;;22.04;59.78;101677.75;4953735;28;20050;-78
2021/09/25 10:07:00;;;;;;;20.92;8.65;;;;;;;22.22;59.44;101666.66;4945553;29;20035;-77
2021/09/25 10:09:29;;;;;;;16.52;10.65;;;;;;;22.53;58.46;101669.66;4931136;28;20035;-78
2021/09/25 10:11:56;;;;;;;14.70;8.07;;;;;;;22.89;57.30;101657.88;4914669;29;20035;-79
2021/09/25 10:14:32;;;;;;;10.82;7.85;;;;;;;23.09;56.52;101658.13;4914625;29;20042;-78
2021/09/25 10:17:01;;;;;;;19.10;7.97;;;;;;;23.36;55.62;101655.88;4931093;29;20031;-78
2021/09/25 10:19:30;;;;;;;23.10;8.93;;;;;;;23.18;56.06;101660.06;4914046;29;20042;-78
2021/09/25 10:22:10;;;;;;;13.55;8.30;;;;;;;23.48;55.35;101662.03;4930462;28;20107;-78
2021/09/25 10:24:41;;;;;;;18.58;9.20;;;;;;;23.85;54.11;101655.47;4931765;29;20031;-79
2021/09/25 10:27:07;;;;;;;34.53;18.17;;;;;;;23.81;54.56;101652.19;4941781;29;20043;-79
2021/09/25 10:29:33;;;;;;;27.20;9.73;;;;;;;25.00;51.49;101652.72;4939013;28;20027;-79
2021/09/25 10:32:18;;;;;;;11.95;9.18;;;;;;;25.40;49.66;101650.00;4918385;29;20031;-80
2021/09/25 10:35:03;;;;;;;17.33;9.55;;;;;;;25.00;50.77;101658.06;4941633;29;20049;-79
2021/09/25 10:37:45;;;;;;;16.35;9.15;;;;;;;24.04;53.46;101654.78;4959134;28;20038;-79
2021/09/25 10:40:21;;;;;;;18.75;11.90;;;;;;;23.48;54.97;101659.34;4920847;29;20082;-80
2021/09/25 10:42:48;;;;;;;13.30;9.07;;;;;;;23.18;56.07;101663.56;4939052;28;20105;-79
2021/09/25 10:45:34;;;;;;;20.17;13.02;;;;;;;23.08;56.40;101659.94;4944730;28;20035;-79
2021/09/25 10:48:21;;;;;;;18.65;11.13;;;;;;;23.36;56.09;101660.38;4947613;28;20107;-79
2021/09/25 10:50:56;;;;;;;20.13;11.57;;;;;;;23.37;55.99;101654.03;4945603;29;20242;-78
2021/09/25 10:53:26;;;;;;;26.00;15.65;;;;;;;23.27;56.35;101645.94;4942153;28;20066;-79
2021/09/25 10:55:53;;;;;;;21.30;13.10;;;;;;;23.17;56.71;101648.50;4944325;28;20043;-79
2021/09/25 10:58:24;;;;;;;22.33;12.65;;;;;;;23.15;56.88;101644.28;4943382;28;20035;-79
2021/09/25 11:00:57;;;;;;;18.38;11.75;;;;;;;23.27;56.59;101651.28;4957291;28;20027;-78
2021/09/25 11:06:13;;;;;;;32.38;20.75;;;;;;;23.16;57.03;101644.16;4956988;28;20038;-79
2021/09/25 11:08:47;;;;;;;26.00;15.85;;;;;;;23.17;57.09;101643.16;4946070;29;20035;-76
2021/09/25 11:11:13;;;;;;;22.25;11.85;;;;;;;23.20;56.81;101647.41;4953154;28;20358;-76
2021/09/25 11:14:00;;;;;;;22.55;11.93;;;;;;;23.11;56.80;101649.00;4939636;28;20324;-77
2021/09/25 11:16:57;;;;;;;29.98;16.27;;;;;;;23.09;57.04;101650.97;4956930;28;20235;-76
2021/09/25 11:19:22;;;;;;;35.33;19.67;;;;;;;23.14;57.31;101645.22;4956301;28;20333;-77
2021/09/25 11:21:48;;;;;;;22.67;12.88;;;;;;;23.17;57.02;101645.00;4933133;28;20055;-76
2021/09/25 11:24:15;;;;;;;20.02;11.98;;;;;;;23.22;56.96;101650.81;4946004;28;20035;-76
2021/09/25 11:26:41;;;;;;;23.15;15.38;;;;;;;23.23;56.77;101643.63;4938912;29;20392;-76
2021/09/25 11:29:07;;;;;;;22.15;13.50;;;;;;;23.15;57.26;101641.59;4928118;28;20036;-76